sensor_id;sensor_type;location;lat;lon;timestamp;P1;durP1;ratioP1;P2;durP2;ratioP2
40244;SDS011;25963;42.694;23.600;2023-02-28T00:02:19;48.17;;;25.23;;
40244;SDS011;25963;42.694;23.600;2023-02-28T00:04:44;49.55;;;23.55;;
40244;SDS011;25963;42.694;23.600;2023-02-28T00:07:11;51.53;;;27.27;;
40244;SDS011;25963;42.694;23.600;2023-02-28T00:09:36;49.50;;;24.27;;
40244;SDS011;25963;42.694;23.600;2023-02-28T00:12:02;50.20;;;24.50;;
40244;SDS011;25963;42.694;23.600;2023-02-28T00:14:35;46.17;;;24.98;;
40244;SDS011;25963;42.694;23.600;2023-02-28T00:17:01;44.50;;;25.48;;
40244;SDS011;25963;42.694;23.600;2023-02-28T00:19:26;53.13;;;27.88;;
40244;SDS011;25963;42.694;23.600;2023-02-28T00:21:51;50.85;;;26.40;;
40244;SDS011;25963;42.694;23.600;2023-02-28T00:24:17;50.97;;;25.30;;
40244;SDS011;25963;42.694;23.600;2023-02-28T00:26:42;50.90;;;26.63;;
40244;SDS011;25963;42.694;23.600;2023-02-28T00:29:08;51.30;;;27.60;;
40244;SDS011;25963;42.694;23.600;2023-02-28T00:31:33;52.22;;;27.98;;
40244;SDS011;25963;42.694;23.600;2023-02-28T00:33:58;50.92;;;27.23;;
40244;SDS011;25963;42.694;23.600;2023-02-28T00:36:24;51.00;;;28.55;;
40244;SDS011;25963;42.694;23.600;2023-02-28T00:38:49;55.55;;;31.98;;
40244;SDS011;25963;42.694;23.600;2023-02-28T00:41:15;50.78;;;29.00;;
40244;SDS011;25963;42.694;23.600;2023-02-28T00:43:40;53.60;;;29.35;;
40244;SDS011;25963;42.694;23.600;2023-02-28T00:46:06;56.42;;;29.58;;
40244;SDS011;25963;42.694;23.600;2023-02-28T00:48:32;52.22;;;28.80;;
40244;SDS011;25963;42.694;23.600;2023-02-28T00:50:57;52.53;;;29.73;;
40244;SDS011;25963;42.694;23.600;2023-02-28T00:53:23;52.83;;;30.02;;
40244;SDS011;25963;42.694;23.600;2023-02-28T00:55:49;51.88;;;28.70;;
40244;SDS011;25963;42.694;23.600;2023-02-28T00:58:15;56.17;;;29.63;;
40244;SDS011;25963;42.694;23.600;2023-02-28T01:00:41;54.15;;;28.92;;
40244;SDS011;25963;42.694;23.600;2023-02-28T01:03:06;54.42;;;29.65;;
40244;SDS011;25963;42.694;23.600;2023-02-28T01:05:32;54.33;;;29.02;;
40244;SDS011;25963;42.694;23.600;2023-02-28T01:07:57;53.78;;;28.65;;
40244;SDS011;25963;42.694;23.600;2023-02-28T01:10:23;57.85;;;30.45;;
40244;SDS011;25963;42.694;23.600;2023-02-28T01:12:49;57.58;;;28.95;;
40244;SDS011;25963;42.694;23.600;2023-02-28T01:15:15;79.07;;;46.60;;
40244;SDS011;25963;42.694;23.600;2023-02-28T01:17:40;97.75;;;57.15;;
40244;SDS011;25963;42.694;23.600;2023-02-28T01:20:06;93.65;;;62.38;;
40244;SDS011;25963;42.694;23.600;2023-02-28T01:22:31;55.00;;;31.48;;
40244;SDS011;25963;42.694;23.600;2023-02-28T01:24:57;53.80;;;29.35;;
40244;SDS011;25963;42.694;23.600;2023-02-28T01:27:22;58.20;;;30.05;;
40244;SDS011;25963;42.694;23.600;2023-02-28T01:29:48;50.42;;;29.00;;
40244;SDS011;25963;42.694;23.600;2023-02-28T01:32:13;51.80;;;27.38;;
40244;SDS011;25963;42.694;23.600;2023-02-28T01:34:39;51.55;;;28.50;;
40244;SDS011;25963;42.694;23.600;2023-02-28T01:37:04;49.35;;;27.35;;
40244;SDS011;25963;42.694;23.600;2023-02-28T01:39:29;48.65;;;27.73;;
40244;SDS011;25963;42.694;23.600;2023-02-28T01:41:55;47.63;;;26.55;;
40244;SDS011;25963;42.694;23.600;2023-02-28T01:47:20;46.53;;;26.90;;
40244;SDS011;25963;42.694;23.600;2023-02-28T01:49:46;43.78;;;24.92;;
40244;SDS011;25963;42.694;23.600;2023-02-28T01:52:11;47.30;;;27.45;;
40244;SDS011;25963;42.694;23.600;2023-02-28T01:54:43;44.30;;;24.90;;
40244;SDS011;25963;42.694;23.600;2023-02-28T01:57:15;44.13;;;24.70;;
40244;SDS011;25963;42.694;23.600;2023-02-28T01:59:49;45.78;;;26.65;;
40244;SDS011;25963;42.694;23.600;2023-02-28T02:02:18;50.85;;;28.77;;
40244;SDS011;25963;42.694;23.600;2023-02-28T02:04:50;54.55;;;29.70;;
40244;SDS011;25963;42.694;23.600;2023-02-28T02:07:21;66.35;;;38.80;;
40244;SDS011;25963;42.694;23.600;2023-02-28T02:09:49;157.02;;;69.60;;
40244;SDS011;25963;42.694;23.600;2023-02-28T02:12:27;72.25;;;36.10;;
40244;SDS011;25963;42.694;23.600;2023-02-28T02:15:21;63.05;;;31.27;;
40244;SDS011;25963;42.694;23.600;2023-02-28T02:17:56;68.75;;;28.20;;
40244;SDS011;25963;42.694;23.600;2023-02-28T02:26:01;62.28;;;26.42;;
40244;SDS011;25963;42.694;23.600;2023-02-28T02:34:20;73.15;;;22.85;;
40244;SDS011;25963;42.694;23.600;2023-02-28T02:37:13;76.90;;;23.90;;
40244;SDS011;25963;42.694;23.600;2023-02-28T02:42:14;83.78;;;22.90;;
40244;SDS011;25963;42.694;23.600;2023-02-28T02:45:03;61.10;;;21.23;;
40244;SDS011;25963;42.694;23.600;2023-02-28T02:47:32;54.95;;;19.38;;
40244;SDS011;25963;42.694;23.600;2023-02-28T02:50:01;49.35;;;19.23;;
40244;SDS011;25963;42.694;23.600;2023-02-28T02:52:34;55.00;;;17.75;;
40244;SDS011;25963;42.694;23.600;2023-02-28T02:55:04;51.38;;;17.60;;
40244;SDS011;25963;42.694;23.600;2023-02-28T02:57:37;42.47;;;16.95;;
40244;SDS011;25963;42.694;23.600;2023-02-28T03:00:10;50.80;;;17.45;;
40244;SDS011;25963;42.694;23.600;2023-02-28T03:02:37;45.22;;;17.67;;
40244;SDS011;25963;42.694;23.600;2023-02-28T03:05:09;47.00;;;18.35;;
40244;SDS011;25963;42.694;23.600;2023-02-28T03:07:42;44.13;;;17.88;;
40244;SDS011;25963;42.694;23.600;2023-02-28T03:10:30;37.10;;;19.85;;
40244;SDS011;25963;42.694;23.600;2023-02-28T03:16:02;66.15;;;23.15;;
40244;SDS011;25963;42.694;23.600;2023-02-28T03:27:30;44.30;;;23.30;;
40244;SDS011;25963;42.694;23.600;2023-02-28T03:30:17;86.03;;;22.50;;
40244;SDS011;25963;42.694;23.600;2023-02-28T03:35:42;143.43;;;29.63;;
40244;SDS011;25963;42.694;23.600;2023-02-28T03:38:25;168.23;;;29.02;;
40244;SDS011;25963;42.694;23.600;2023-02-28T03:41:06;147.50;;;26.83;;
40244;SDS011;25963;42.694;23.600;2023-02-28T03:43:38;160.18;;;31.33;;
40244;SDS011;25963;42.694;23.600;2023-02-28T03:46:09;294.30;;;42.72;;
40244;SDS011;25963;42.694;23.600;2023-02-28T03:51:09;122.82;;;31.50;;
40244;SDS011;25963;42.694;23.600;2023-02-28T03:53:44;247.38;;;34.10;;
40244;SDS011;25963;42.694;23.600;2023-02-28T03:56:20;247.43;;;34.20;;
40244;SDS011;25963;42.694;23.600;2023-02-28T03:59:12;290.35;;;34.38;;
40244;SDS011;25963;42.694;23.600;2023-02-28T04:01:48;229.70;;;32.47;;
40244;SDS011;25963;42.694;23.600;2023-02-28T04:04:14;315.08;;;37.40;;
40244;SDS011;25963;42.694;23.600;2023-02-28T04:06:42;203.38;;;30.13;;
40244;SDS011;25963;42.694;23.600;2023-02-28T04:09:09;299.50;;;37.15;;
40244;SDS011;25963;42.694;23.600;2023-02-28T04:11:40;216.88;;;31.45;;
40244;SDS011;25963;42.694;23.600;2023-02-28T04:14:09;339.67;;;37.03;;
40244;SDS011;25963;42.694;23.600;2023-02-28T04:16:37;243.05;;;35.70;;
40244;SDS011;25963;42.694;23.600;2023-02-28T04:19:04;195.40;;;33.03;;
40244;SDS011;25963;42.694;23.600;2023-02-28T04:21:32;216.23;;;31.48;;
40244;SDS011;25963;42.694;23.600;2023-02-28T04:23:57;155.88;;;29.83;;
40244;SDS011;25963;42.694;23.600;2023-02-28T04:26:35;240.85;;;43.95;;
40244;SDS011;25963;42.694;23.600;2023-02-28T04:29:02;149.25;;;33.25;;
40244;SDS011;25963;42.694;23.600;2023-02-28T04:31:29;156.52;;;32.55;;
40244;SDS011;25963;42.694;23.600;2023-02-28T04:33:55;216.93;;;48.03;;
40244;SDS011;25963;42.694;23.600;2023-02-28T04:36:21;235.27;;;37.20;;
40244;SDS011;25963;42.694;23.600;2023-02-28T04:38:48;161.38;;;29.92;;
40244;SDS011;25963;42.694;23.600;2023-02-28T04:41:14;135.98;;;29.65;;
40244;SDS011;25963;42.694;23.600;2023-02-28T04:43:40;103.03;;;28.95;;
40244;SDS011;25963;42.694;23.600;2023-02-28T04:46:05;96.88;;;29.60;;
40244;SDS011;25963;42.694;23.600;2023-02-28T04:48:32;98.18;;;35.25;;
40244;SDS011;25963;42.694;23.600;2023-02-28T04:51:03;101.65;;;44.60;;
40244;SDS011;25963;42.694;23.600;2023-02-28T04:53:30;100.82;;;36.05;;
40244;SDS011;25963;42.694;23.600;2023-02-28T04:55:57;85.72;;;37.40;;
40244;SDS011;25963;42.694;23.600;2023-02-28T04:58:23;105.47;;;43.75;;
40244;SDS011;25963;42.694;23.600;2023-02-28T05:00:52;105.57;;;46.85;;
40244;SDS011;25963;42.694;23.600;2023-02-28T05:03:18;103.72;;;50.85;;
40244;SDS011;25963;42.694;23.600;2023-02-28T05:05:45;93.95;;;44.35;;
40244;SDS011;25963;42.694;23.600;2023-02-28T05:08:11;95.68;;;49.90;;
40244;SDS011;25963;42.694;23.600;2023-02-28T05:10:37;92.13;;;49.85;;
40244;SDS011;25963;42.694;23.600;2023-02-28T05:13:02;119.85;;;61.70;;
40244;SDS011;25963;42.694;23.600;2023-02-28T05:15:27;210.52;;;88.25;;
40244;SDS011;25963;42.694;23.600;2023-02-28T05:17:53;226.40;;;95.60;;
40244;SDS011;25963;42.694;23.600;2023-02-28T05:20:19;203.25;;;85.50;;
40244;SDS011;25963;42.694;23.600;2023-02-28T05:22:45;99.63;;;46.22;;
40244;SDS011;25963;42.694;23.600;2023-02-28T05:25:18;96.05;;;45.17;;
40244;SDS011;25963;42.694;23.600;2023-02-28T05:27:45;215.98;;;95.13;;
40244;SDS011;25963;42.694;23.600;2023-02-28T05:30:10;178.50;;;79.80;;
40244;SDS011;25963;42.694;23.600;2023-02-28T05:32:37;83.70;;;43.75;;
40244;SDS011;25963;42.694;23.600;2023-02-28T05:35:03;65.00;;;34.00;;
40244;SDS011;25963;42.694;23.600;2023-02-28T05:37:29;54.38;;;29.33;;
40244;SDS011;25963;42.694;23.600;2023-02-28T05:39:55;48.58;;;26.63;;
40244;SDS011;25963;42.694;23.600;2023-02-28T05:42:20;47.38;;;26.20;;
40244;SDS011;25963;42.694;23.600;2023-02-28T05:44:46;46.10;;;25.80;;
40244;SDS011;25963;42.694;23.600;2023-02-28T05:47:11;47.60;;;26.52;;
40244;SDS011;25963;42.694;23.600;2023-02-28T05:49:40;47.10;;;27.95;;
40244;SDS011;25963;42.694;23.600;2023-02-28T05:52:06;48.50;;;27.02;;
40244;SDS011;25963;42.694;23.600;2023-02-28T05:54:31;54.17;;;31.70;;
40244;SDS011;25963;42.694;23.600;2023-02-28T05:56:57;53.90;;;31.08;;
40244;SDS011;25963;42.694;23.600;2023-02-28T05:59:22;63.28;;;34.78;;
40244;SDS011;25963;42.694;23.600;2023-02-28T06:01:47;57.58;;;32.20;;
40244;SDS011;25963;42.694;23.600;2023-02-28T06:04:13;67.25;;;35.20;;
40244;SDS011;25963;42.694;23.600;2023-02-28T06:06:43;118.55;;;52.20;;
40244;SDS011;25963;42.694;23.600;2023-02-28T06:09:10;243.40;;;95.93;;
40244;SDS011;25963;42.694;23.600;2023-02-28T06:11:35;104.03;;;49.03;;
40244;SDS011;25963;42.694;23.600;2023-02-28T06:14:01;180.35;;;73.40;;
40244;SDS011;25963;42.694;23.600;2023-02-28T06:16:27;87.65;;;41.17;;
40244;SDS011;25963;42.694;23.600;2023-02-28T06:18:54;67.10;;;34.33;;
40244;SDS011;25963;42.694;23.600;2023-02-28T06:21:22;73.78;;;36.15;;
40244;SDS011;25963;42.694;23.600;2023-02-28T06:23:49;98.13;;;46.05;;
40244;SDS011;25963;42.694;23.600;2023-02-28T06:26:14;90.40;;;41.92;;
40244;SDS011;25963;42.694;23.600;2023-02-28T06:28:39;137.13;;;57.65;;
40244;SDS011;25963;42.694;23.600;2023-02-28T06:31:06;114.35;;;52.88;;
40244;SDS011;25963;42.694;23.600;2023-02-28T06:33:36;95.65;;;45.35;;
40244;SDS011;25963;42.694;23.600;2023-02-28T06:36:03;133.55;;;60.35;;
40244;SDS011;25963;42.694;23.600;2023-02-28T06:38:29;176.88;;;80.35;;
40244;SDS011;25963;42.694;23.600;2023-02-28T06:40:55;149.13;;;72.97;;
40244;SDS011;25963;42.694;23.600;2023-02-28T06:43:22;82.45;;;41.80;;
40244;SDS011;25963;42.694;23.600;2023-02-28T06:45:48;268.40;;;106.57;;
40244;SDS011;25963;42.694;23.600;2023-02-28T06:48:14;378.77;;;159.02;;
40244;SDS011;25963;42.694;23.600;2023-02-28T06:50:40;177.20;;;77.07;;
40244;SDS011;25963;42.694;23.600;2023-02-28T06:53:05;162.00;;;69.65;;
40244;SDS011;25963;42.694;23.600;2023-02-28T06:55:31;325.52;;;130.82;;
40244;SDS011;25963;42.694;23.600;2023-02-28T06:57:57;185.70;;;70.22;;
40244;SDS011;25963;42.694;23.600;2023-02-28T07:00:23;52.97;;;28.42;;
40244;SDS011;25963;42.694;23.600;2023-02-28T07:02:48;151.23;;;60.75;;
40244;SDS011;25963;42.694;23.600;2023-02-28T07:05:14;71.28;;;33.40;;
40244;SDS011;25963;42.694;23.600;2023-02-28T07:07:39;55.83;;;30.65;;
40244;SDS011;25963;42.694;23.600;2023-02-28T07:10:11;165.05;;;68.22;;
40244;SDS011;25963;42.694;23.600;2023-02-28T07:12:37;318.65;;;126.50;;
40244;SDS011;25963;42.694;23.600;2023-02-28T07:15:04;119.25;;;51.58;;
40244;SDS011;25963;42.694;23.600;2023-02-28T07:17:30;181.50;;;90.40;;
40244;SDS011;25963;42.694;23.600;2023-02-28T07:19:56;139.30;;;65.68;;
40244;SDS011;25963;42.694;23.600;2023-02-28T07:22:21;71.60;;;34.55;;
40244;SDS011;25963;42.694;23.600;2023-02-28T07:24:47;73.78;;;33.15;;
40244;SDS011;25963;42.694;23.600;2023-02-28T07:27:12;59.55;;;30.08;;
40244;SDS011;25963;42.694;23.600;2023-02-28T07:29:48;67.30;;;32.50;;
40244;SDS011;25963;42.694;23.600;2023-02-28T07:32:14;68.20;;;33.03;;
40244;SDS011;25963;42.694;23.600;2023-02-28T07:34:39;59.10;;;32.85;;
40244;SDS011;25963;42.694;23.600;2023-02-28T07:37:05;62.33;;;29.70;;
40244;SDS011;25963;42.694;23.600;2023-02-28T07:39:30;62.47;;;32.28;;
40244;SDS011;25963;42.694;23.600;2023-02-28T07:41:55;62.20;;;34.42;;
40244;SDS011;25963;42.694;23.600;2023-02-28T07:44:21;63.03;;;32.25;;
40244;SDS011;25963;42.694;23.600;2023-02-28T07:46:47;59.25;;;28.73;;
40244;SDS011;25963;42.694;23.600;2023-02-28T07:49:12;52.17;;;26.90;;
40244;SDS011;25963;42.694;23.600;2023-02-28T07:51:38;53.17;;;26.38;;
40244;SDS011;25963;42.694;23.600;2023-02-28T07:54:06;51.22;;;26.55;;
40244;SDS011;25963;42.694;23.600;2023-02-28T07:56:32;56.17;;;30.13;;
40244;SDS011;25963;42.694;23.600;2023-02-28T07:58:58;59.13;;;27.77;;
40244;SDS011;25963;42.694;23.600;2023-02-28T08:01:26;54.17;;;27.98;;
40244;SDS011;25963;42.694;23.600;2023-02-28T08:03:52;55.35;;;29.10;;
40244;SDS011;25963;42.694;23.600;2023-02-28T08:06:20;57.78;;;29.27;;
40244;SDS011;25963;42.694;23.600;2023-02-28T08:08:47;50.75;;;26.17;;
40244;SDS011;25963;42.694;23.600;2023-02-28T08:11:13;49.72;;;26.45;;
40244;SDS011;25963;42.694;23.600;2023-02-28T08:13:39;48.28;;;25.02;;
40244;SDS011;25963;42.694;23.600;2023-02-28T08:16:04;53.55;;;27.38;;
40244;SDS011;25963;42.694;23.600;2023-02-28T08:18:30;57.88;;;25.95;;
40244;SDS011;25963;42.694;23.600;2023-02-28T08:20:57;68.75;;;33.90;;
40244;SDS011;25963;42.694;23.600;2023-02-28T08:23:24;51.97;;;24.27;;
40244;SDS011;25963;42.694;23.600;2023-02-28T08:25:52;74.07;;;35.78;;
40244;SDS011;25963;42.694;23.600;2023-02-28T08:28:21;85.82;;;35.50;;
40244;SDS011;25963;42.694;23.600;2023-02-28T08:30:47;54.60;;;24.50;;
40244;SDS011;25963;42.694;23.600;2023-02-28T08:33:12;62.88;;;29.58;;
40244;SDS011;25963;42.694;23.600;2023-02-28T08:35:38;61.40;;;29.25;;
40244;SDS011;25963;42.694;23.600;2023-02-28T08:38:03;98.55;;;44.15;;
40244;SDS011;25963;42.694;23.600;2023-02-28T08:40:29;54.17;;;26.15;;
40244;SDS011;25963;42.694;23.600;2023-02-28T08:42:54;55.65;;;27.40;;
40244;SDS011;25963;42.694;23.600;2023-02-28T08:45:20;55.50;;;25.63;;
40244;SDS011;25963;42.694;23.600;2023-02-28T08:47:45;49.15;;;25.73;;
40244;SDS011;25963;42.694;23.600;2023-02-28T08:50:10;48.92;;;23.35;;
40244;SDS011;25963;42.694;23.600;2023-02-28T08:52:38;47.75;;;25.40;;
40244;SDS011;25963;42.694;23.600;2023-02-28T08:55:03;51.90;;;26.67;;
40244;SDS011;25963;42.694;23.600;2023-02-28T08:57:29;89.57;;;48.75;;
40244;SDS011;25963;42.694;23.600;2023-02-28T08:59:54;67.93;;;33.65;;
40244;SDS011;25963;42.694;23.600;2023-02-28T09:02:20;34.33;;;18.77;;
40244;SDS011;25963;42.694;23.600;2023-02-28T09:04:45;46.90;;;24.33;;
40244;SDS011;25963;42.694;23.600;2023-02-28T09:07:11;37.78;;;18.80;;
40244;SDS011;25963;42.694;23.600;2023-02-28T09:09:37;35.55;;;17.92;;
40244;SDS011;25963;42.694;23.600;2023-02-28T09:12:02;41.22;;;19.75;;
40244;SDS011;25963;42.694;23.600;2023-02-28T09:14:28;45.80;;;22.48;;
40244;SDS011;25963;42.694;23.600;2023-02-28T09:16:53;35.90;;;19.83;;
40244;SDS011;25963;42.694;23.600;2023-02-28T09:19:19;39.90;;;21.05;;
40244;SDS011;25963;42.694;23.600;2023-02-28T09:21:45;77.25;;;38.65;;
40244;SDS011;25963;42.694;23.600;2023-02-28T09:24:10;41.20;;;20.17;;
40244;SDS011;25963;42.694;23.600;2023-02-28T09:26:39;32.20;;;17.17;;
40244;SDS011;25963;42.694;23.600;2023-02-28T09:29:05;27.20;;;14.30;;
40244;SDS011;25963;42.694;23.600;2023-02-28T09:31:31;51.55;;;24.98;;
40244;SDS011;25963;42.694;23.600;2023-02-28T09:33:57;79.03;;;35.00;;
40244;SDS011;25963;42.694;23.600;2023-02-28T09:36:24;49.75;;;23.33;;
40244;SDS011;25963;42.694;23.600;2023-02-28T09:38:51;24.55;;;11.90;;
40244;SDS011;25963;42.694;23.600;2023-02-28T09:43:52;36.08;;;18.95;;
40244;SDS011;25963;42.694;23.600;2023-02-28T09:49:11;62.58;;;40.85;;
40244;SDS011;25963;42.694;23.600;2023-02-28T09:54:13;66.68;;;28.25;;
40244;SDS011;25963;42.694;23.600;2023-02-28T09:56:44;79.50;;;34.72;;
40244;SDS011;25963;42.694;23.600;2023-02-28T10:04:23;51.67;;;27.33;;
40244;SDS011;25963;42.694;23.600;2023-02-28T10:06:59;22.20;;;12.90;;
40244;SDS011;25963;42.694;23.600;2023-02-28T10:09:30;31.17;;;15.60;;
40244;SDS011;25963;42.694;23.600;2023-02-28T10:12:04;26.63;;;12.90;;
40244;SDS011;25963;42.694;23.600;2023-02-28T10:14:32;23.23;;;13.43;;
40244;SDS011;25963;42.694;23.600;2023-02-28T10:17:01;24.70;;;15.07;;
40244;SDS011;25963;42.694;23.600;2023-02-28T10:19:47;21.25;;;12.88;;
40244;SDS011;25963;42.694;23.600;2023-02-28T10:22:22;31.02;;;14.57;;
40244;SDS011;25963;42.694;23.600;2023-02-28T10:24:54;21.35;;;12.60;;
40244;SDS011;25963;42.694;23.600;2023-02-28T10:27:26;23.63;;;13.05;;
40244;SDS011;25963;42.694;23.600;2023-02-28T10:29:56;18.02;;;11.55;;
40244;SDS011;25963;42.694;23.600;2023-02-28T10:32:28;22.90;;;12.35;;
40244;SDS011;25963;42.694;23.600;2023-02-28T10:37:30;20.70;;;12.90;;
40244;SDS011;25963;42.694;23.600;2023-02-28T10:39:57;25.30;;;14.90;;
40244;SDS011;25963;42.694;23.600;2023-02-28T10:45:13;41.25;;;21.38;;
40244;SDS011;25963;42.694;23.600;2023-02-28T10:47:54;45.70;;;24.25;;
40244;SDS011;25963;42.694;23.600;2023-02-28T10:53:49;42.03;;;23.65;;
40244;SDS011;25963;42.694;23.600;2023-02-28T10:58:26;43.97;;;27.52;;
40244;SDS011;25963;42.694;23.600;2023-02-28T11:00:53;37.28;;;22.17;;
40244;SDS011;25963;42.694;23.600;2023-02-28T11:03:29;41.33;;;24.13;;
40244;SDS011;25963;42.694;23.600;2023-02-28T11:05:59;37.03;;;23.33;;
40244;SDS011;25963;42.694;23.600;2023-02-28T11:08:31;42.85;;;23.60;;
40244;SDS011;25963;42.694;23.600;2023-02-28T11:11:02;40.78;;;23.45;;
40244;SDS011;25963;42.694;23.600;2023-02-28T11:13:35;37.65;;;22.98;;
40244;SDS011;25963;42.694;23.600;2023-02-28T11:16:04;40.30;;;22.58;;
40244;SDS011;25963;42.694;23.600;2023-02-28T11:21:19;44.75;;;25.13;;
40244;SDS011;25963;42.694;23.600;2023-02-28T11:23:53;35.47;;;20.63;;
40244;SDS011;25963;42.694;23.600;2023-02-28T11:26:43;62.67;;;31.75;;
40244;SDS011;25963;42.694;23.600;2023-02-28T11:34:38;35.47;;;22.98;;
40244;SDS011;25963;42.694;23.600;2023-02-28T11:37:05;34.35;;;20.73;;
40244;SDS011;25963;42.694;23.600;2023-02-28T11:39:37;52.92;;;27.65;;
40244;SDS011;25963;42.694;23.600;2023-02-28T11:48:22;37.60;;;19.88;;
40244;SDS011;25963;42.694;23.600;2023-02-28T11:53:59;30.50;;;18.85;;
40244;SDS011;25963;42.694;23.600;2023-02-28T11:56:48;30.50;;;18.75;;
40244;SDS011;25963;42.694;23.600;2023-02-28T12:05:01;32.40;;;17.70;;
40244;SDS011;25963;42.694;23.600;2023-02-28T12:07:43;30.23;;;19.73;;
40244;SDS011;25963;42.694;23.600;2023-02-28T12:10:21;36.47;;;19.33;;
40244;SDS011;25963;42.694;23.600;2023-02-28T12:26:44;32.03;;;20.02;;
40244;SDS011;25963;42.694;23.600;2023-02-28T12:29:23;33.03;;;18.40;;
40244;SDS011;25963;42.694;23.600;2023-02-28T12:31:59;28.33;;;16.73;;
40244;SDS011;25963;42.694;23.600;2023-02-28T12:34:39;29.83;;;18.08;;
40244;SDS011;25963;42.694;23.600;2023-02-28T12:37:20;33.28;;;18.77;;
40244;SDS011;25963;42.694;23.600;2023-02-28T12:39:54;32.70;;;19.15;;
40244;SDS011;25963;42.694;23.600;2023-02-28T12:42:31;30.02;;;16.40;;
40244;SDS011;25963;42.694;23.600;2023-02-28T12:45:02;39.67;;;23.35;;
40244;SDS011;25963;42.694;23.600;2023-02-28T12:47:33;30.58;;;17.85;;
40244;SDS011;25963;42.694;23.600;2023-02-28T12:50:02;39.47;;;19.95;;
40244;SDS011;25963;42.694;23.600;2023-02-28T13:00:22;39.10;;;21.20;;
40244;SDS011;25963;42.694;23.600;2023-02-28T13:08:23;36.90;;;19.30;;
40244;SDS011;25963;42.694;23.600;2023-02-28T13:11:01;37.40;;;17.53;;
40244;SDS011;25963;42.694;23.600;2023-02-28T13:13:27;37.15;;;20.52;;
40244;SDS011;25963;42.694;23.600;2023-02-28T13:18:29;31.02;;;16.42;;
40244;SDS011;25963;42.694;23.600;2023-02-28T13:20:55;34.20;;;18.75;;
40244;SDS011;25963;42.694;23.600;2023-02-28T13:23:40;32.60;;;16.52;;
40244;SDS011;25963;42.694;23.600;2023-02-28T13:29:00;33.22;;;17.58;;
40244;SDS011;25963;42.694;23.600;2023-02-28T13:31:29;30.13;;;18.10;;
40244;SDS011;25963;42.694;23.600;2023-02-28T13:36:27;34.30;;;18.20;;
40244;SDS011;25963;42.694;23.600;2023-02-28T13:41:59;42.65;;;20.67;;
40244;SDS011;25963;42.694;23.600;2023-02-28T13:47:29;38.40;;;21.08;;
40244;SDS011;25963;42.694;23.600;2023-02-28T14:06:32;29.55;;;16.33;;
40244;SDS011;25963;42.694;23.600;2023-02-28T14:09:05;34.78;;;16.05;;
40244;SDS011;25963;42.694;23.600;2023-02-28T14:11:46;22.85;;;9.98;;
40244;SDS011;25963;42.694;23.600;2023-02-28T14:14:57;42.97;;;18.13;;
40244;SDS011;25963;42.694;23.600;2023-02-28T14:17:04;22.58;;;11.88;;
40244;SDS011;25963;42.694;23.600;2023-02-28T14:19:35;22.80;;;10.27;;
40244;SDS011;25963;42.694;23.600;2023-02-28T14:22:34;26.85;;;11.80;;
40244;SDS011;25963;42.694;23.600;2023-02-28T14:28:54;20.83;;;9.80;;
40244;SDS011;25963;42.694;23.600;2023-02-28T14:31:09;21.02;;;11.23;;
40244;SDS011;25963;42.694;23.600;2023-02-28T14:33:43;24.00;;;11.95;;
40244;SDS011;25963;42.694;23.600;2023-02-28T14:41:30;41.50;;;20.08;;
40244;SDS011;25963;42.694;23.600;2023-02-28T14:44:02;13.15;;;7.75;;
40244;SDS011;25963;42.694;23.600;2023-02-28T14:46:52;9.40;;;6.05;;
40244;SDS011;25963;42.694;23.600;2023-02-28T14:49:55;18.88;;;8.88;;
40244;SDS011;25963;42.694;23.600;2023-02-28T14:52:21;23.75;;;13.73;;
40244;SDS011;25963;42.694;23.600;2023-02-28T14:54:52;16.20;;;9.25;;
40244;SDS011;25963;42.694;23.600;2023-02-28T14:57:21;15.45;;;8.75;;
40244;SDS011;25963;42.694;23.600;2023-02-28T14:59:57;10.68;;;5.63;;
40244;SDS011;25963;42.694;23.600;2023-02-28T15:02:33;17.40;;;9.50;;
40244;SDS011;25963;42.694;23.600;2023-02-28T15:05:01;14.43;;;7.95;;
40244;SDS011;25963;42.694;23.600;2023-02-28T15:07:41;23.77;;;10.30;;
40244;SDS011;25963;42.694;23.600;2023-02-28T15:12:52;21.55;;;10.80;;
40244;SDS011;25963;42.694;23.600;2023-02-28T15:15:21;14.15;;;6.60;;
40244;SDS011;25963;42.694;23.600;2023-02-28T15:17:50;18.15;;;9.85;;
40244;SDS011;25963;42.694;23.600;2023-02-28T15:20:21;12.43;;;7.00;;
40244;SDS011;25963;42.694;23.600;2023-02-28T15:22:48;16.40;;;8.32;;
40244;SDS011;25963;42.694;23.600;2023-02-28T15:25:18;17.77;;;8.63;;
40244;SDS011;25963;42.694;23.600;2023-02-28T15:27:46;19.33;;;10.68;;
40244;SDS011;25963;42.694;23.600;2023-02-28T15:30:19;16.55;;;7.80;;
40244;SDS011;25963;42.694;23.600;2023-02-28T15:33:17;9.27;;;5.55;;
40244;SDS011;25963;42.694;23.600;2023-02-28T15:35:43;23.13;;;11.52;;
40244;SDS011;25963;42.694;23.600;2023-02-28T15:40:44;21.10;;;7.40;;
40244;SDS011;25963;42.694;23.600;2023-02-28T15:43:28;14.63;;;8.90;;
40244;SDS011;25963;42.694;23.600;2023-02-28T15:46:01;19.63;;;10.63;;
40244;SDS011;25963;42.694;23.600;2023-02-28T15:48:36;17.23;;;10.30;;
40244;SDS011;25963;42.694;23.600;2023-02-28T15:51:12;13.48;;;8.40;;
40244;SDS011;25963;42.694;23.600;2023-02-28T15:53:45;15.98;;;8.63;;
40244;SDS011;25963;42.694;23.600;2023-02-28T15:59:42;59.22;;;22.65;;
40244;SDS011;25963;42.694;23.600;2023-02-28T16:02:02;21.55;;;10.00;;
40244;SDS011;25963;42.694;23.600;2023-02-28T16:04:59;10.45;;;6.45;;
40244;SDS011;25963;42.694;23.600;2023-02-28T16:07:25;22.05;;;12.40;;
40244;SDS011;25963;42.694;23.600;2023-02-28T16:09:50;13.90;;;7.53;;
40244;SDS011;25963;42.694;23.600;2023-02-28T16:12:16;18.88;;;11.45;;
40244;SDS011;25963;42.694;23.600;2023-02-28T16:14:42;17.13;;;9.07;;
40244;SDS011;25963;42.694;23.600;2023-02-28T16:17:30;17.77;;;8.63;;
40244;SDS011;25963;42.694;23.600;2023-02-28T16:19:59;19.50;;;11.18;;
40244;SDS011;25963;42.694;23.600;2023-02-28T16:22:25;9.07;;;5.85;;
40244;SDS011;25963;42.694;23.600;2023-02-28T16:24:51;9.30;;;5.50;;
40244;SDS011;25963;42.694;23.600;2023-02-28T16:27:21;74.18;;;24.70;;
40244;SDS011;25963;42.694;23.600;2023-02-28T16:29:54;54.22;;;20.55;;
40244;SDS011;25963;42.694;23.600;2023-02-28T16:32:20;14.73;;;7.53;;
40244;SDS011;25963;42.694;23.600;2023-02-28T16:34:45;37.92;;;14.55;;
40244;SDS011;25963;42.694;23.600;2023-02-28T16:37:15;62.03;;;25.70;;
40244;SDS011;25963;42.694;23.600;2023-02-28T16:39:42;58.75;;;21.33;;
40244;SDS011;25963;42.694;23.600;2023-02-28T16:42:18;64.97;;;24.30;;
40244;SDS011;25963;42.694;23.600;2023-02-28T16:44:48;21.33;;;9.65;;
40244;SDS011;25963;42.694;23.600;2023-02-28T16:47:13;26.58;;;12.82;;
40244;SDS011;25963;42.694;23.600;2023-02-28T16:49:39;46.47;;;21.05;;
40244;SDS011;25963;42.694;23.600;2023-02-28T16:52:07;78.72;;;35.80;;
40244;SDS011;25963;42.694;23.600;2023-02-28T16:54:33;26.13;;;13.30;;
40244;SDS011;25963;42.694;23.600;2023-02-28T16:56:58;26.88;;;14.25;;
40244;SDS011;25963;42.694;23.600;2023-02-28T16:59:24;16.23;;;7.70;;